sensor_id;sensor_type;location;lat;lon;timestamp;P1;durP1;ratioP1;P2;durP2;ratioP2
71080;SDS011;58740;50.672;18.690;2022-11-15T00:01:18;24.00;;;11.80;;
71080;SDS011;58740;50.672;18.690;2022-11-15T00:03:46;25.10;;;11.80;;
71080;SDS011;58740;50.672;18.690;2022-11-15T00:06:18;26.60;;;12.90;;
71080;SDS011;58740;50.672;18.690;2022-11-15T00:08:46;22.40;;;10.60;;
71080;SDS011;58740;50.672;18.690;2022-11-15T00:11:14;31.40;;;13.60;;
71080;SDS011;58740;50.672;18.690;2022-11-15T00:13:42;25.60;;;13.30;;
71080;SDS011;58740;50.672;18.690;2022-11-15T00:16:10;20.60;;;9.50;;
71080;SDS011;58740;50.672;18.690;2022-11-15T00:18:38;23.40;;;12.10;;
71080;SDS011;58740;50.672;18.690;2022-11-15T00:21:09;21.80;;;10.60;;
71080;SDS011;58740;50.672;18.690;2022-11-15T00:23:38;22.30;;;11.70;;
71080;SDS011;58740;50.672;18.690;2022-11-15T00:26:08;27.20;;;14.00;;
71080;SDS011;58740;50.672;18.690;2022-11-15T00:28:40;30.30;;;14.00;;
71080;SDS011;58740;50.672;18.690;2022-11-15T00:31:12;29.60;;;14.50;;
71080;SDS011;58740;50.672;18.690;2022-11-15T00:33:43;29.00;;;15.10;;
71080;SDS011;58740;50.672;18.690;2022-11-15T00:36:11;26.20;;;14.10;;
71080;SDS011;58740;50.672;18.690;2022-11-15T00:38:39;26.10;;;13.30;;
71080;SDS011;58740;50.672;18.690;2022-11-15T00:41:08;24.90;;;12.70;;
71080;SDS011;58740;50.672;18.690;2022-11-15T00:43:37;18.70;;;9.90;;
71080;SDS011;58740;50.672;18.690;2022-11-15T00:46:07;31.90;;;15.20;;
71080;SDS011;58740;50.672;18.690;2022-11-15T00:48:37;29.90;;;13.90;;
71080;SDS011;58740;50.672;18.690;2022-11-15T00:51:05;28.20;;;14.80;;
71080;SDS011;58740;50.672;18.690;2022-11-15T00:53:32;27.90;;;14.60;;
71080;SDS011;58740;50.672;18.690;2022-11-15T00:56:01;23.30;;;12.20;;
71080;SDS011;58740;50.672;18.690;2022-11-15T00:58:28;22.40;;;11.40;;
71080;SDS011;58740;50.672;18.690;2022-11-15T01:00:56;24.90;;;12.90;;
71080;SDS011;58740;50.672;18.690;2022-11-15T01:03:33;14.30;;;7.10;;
71080;SDS011;58740;50.672;18.690;2022-11-15T01:06:02;24.60;;;13.10;;
71080;SDS011;58740;50.672;18.690;2022-11-15T01:08:31;29.90;;;14.70;;
71080;SDS011;58740;50.672;18.690;2022-11-15T01:11:03;27.90;;;13.20;;
71080;SDS011;58740;50.672;18.690;2022-11-15T01:13:33;30.70;;;13.70;;
71080;SDS011;58740;50.672;18.690;2022-11-15T01:16:12;28.50;;;14.10;;
71080;SDS011;58740;50.672;18.690;2022-11-15T01:18:41;30.50;;;14.80;;
71080;SDS011;58740;50.672;18.690;2022-11-15T01:21:15;28.90;;;15.60;;
71080;SDS011;58740;50.672;18.690;2022-11-15T01:23:44;26.50;;;12.90;;
71080;SDS011;58740;50.672;18.690;2022-11-15T01:26:14;27.10;;;14.40;;
71080;SDS011;58740;50.672;18.690;2022-11-15T01:28:42;32.80;;;16.90;;
71080;SDS011;58740;50.672;18.690;2022-11-15T01:31:13;32.60;;;16.80;;
71080;SDS011;58740;50.672;18.690;2022-11-15T01:33:43;34.10;;;16.20;;
71080;SDS011;58740;50.672;18.690;2022-11-15T01:36:17;31.90;;;16.50;;
71080;SDS011;58740;50.672;18.690;2022-11-15T01:38:58;36.80;;;18.30;;
71080;SDS011;58740;50.672;18.690;2022-11-15T01:41:29;31.90;;;16.20;;
71080;SDS011;58740;50.672;18.690;2022-11-15T01:47:01;24.50;;;13.80;;
71080;SDS011;58740;50.672;18.690;2022-11-15T01:49:35;31.10;;;15.60;;
71080;SDS011;58740;50.672;18.690;2022-11-15T01:52:15;34.90;;;17.70;;
71080;SDS011;58740;50.672;18.690;2022-11-15T01:54:48;33.30;;;17.60;;
71080;SDS011;58740;50.672;18.690;2022-11-15T01:57:20;31.70;;;17.60;;
71080;SDS011;58740;50.672;18.690;2022-11-15T01:59:48;29.90;;;16.30;;
71080;SDS011;58740;50.672;18.690;2022-11-15T02:02:16;33.60;;;17.00;;
71080;SDS011;58740;50.672;18.690;2022-11-15T02:04:46;31.50;;;15.70;;
71080;SDS011;58740;50.672;18.690;2022-11-15T02:07:19;25.00;;;13.00;;
71080;SDS011;58740;50.672;18.690;2022-11-15T02:09:49;28.00;;;14.90;;
71080;SDS011;58740;50.672;18.690;2022-11-15T02:12:20;25.10;;;12.90;;
71080;SDS011;58740;50.672;18.690;2022-11-15T02:14:52;35.60;;;18.10;;
71080;SDS011;58740;50.672;18.690;2022-11-15T02:17:40;32.20;;;16.80;;
71080;SDS011;58740;50.672;18.690;2022-11-15T02:30:35;23.60;;;12.20;;
71080;SDS011;58740;50.672;18.690;2022-11-15T02:36:11;31.10;;;14.80;;
71080;SDS011;58740;50.672;18.690;2022-11-15T02:38:59;33.40;;;16.20;;
71080;SDS011;58740;50.672;18.690;2022-11-15T02:44:43;28.40;;;14.50;;
71080;SDS011;58740;50.672;18.690;2022-11-15T02:47:08;27.30;;;13.80;;
71080;SDS011;58740;50.672;18.690;2022-11-15T02:49:45;24.80;;;12.30;;
71080;SDS011;58740;50.672;18.690;2022-11-15T02:52:18;26.70;;;13.60;;
71080;SDS011;58740;50.672;18.690;2022-11-15T02:55:00;28.40;;;14.00;;
71080;SDS011;58740;50.672;18.690;2022-11-15T02:57:45;33.90;;;14.60;;
71080;SDS011;58740;50.672;18.690;2022-11-15T03:00:20;30.80;;;16.30;;
71080;SDS011;58740;50.672;18.690;2022-11-15T03:02:56;34.20;;;16.60;;
71080;SDS011;58740;50.672;18.690;2022-11-15T03:05:35;34.60;;;17.70;;
71080;SDS011;58740;50.672;18.690;2022-11-15T03:11:21;33.90;;;17.30;;
71080;SDS011;58740;50.672;18.690;2022-11-15T03:13:53;33.70;;;17.20;;
71080;SDS011;58740;50.672;18.690;2022-11-15T03:19:31;31.00;;;17.40;;
71080;SDS011;58740;50.672;18.690;2022-11-15T03:22:09;33.80;;;15.90;;
71080;SDS011;58740;50.672;18.690;2022-11-15T03:24:42;30.90;;;15.50;;
71080;SDS011;58740;50.672;18.690;2022-11-15T03:27:15;32.10;;;17.00;;
71080;SDS011;58740;50.672;18.690;2022-11-15T03:29:52;35.50;;;16.50;;
71080;SDS011;58740;50.672;18.690;2022-11-15T03:32:28;33.60;;;16.80;;
71080;SDS011;58740;50.672;18.690;2022-11-15T03:35:02;32.10;;;17.40;;
71080;SDS011;58740;50.672;18.690;2022-11-15T03:40:30;35.20;;;18.30;;
71080;SDS011;58740;50.672;18.690;2022-11-15T03:46:02;36.50;;;18.60;;
71080;SDS011;58740;50.672;18.690;2022-11-15T03:48:39;36.30;;;17.60;;
71080;SDS011;58740;50.672;18.690;2022-11-15T03:51:13;33.50;;;17.20;;
71080;SDS011;58740;50.672;18.690;2022-11-15T03:53:41;37.60;;;18.60;;
71080;SDS011;58740;50.672;18.690;2022-11-15T03:56:09;43.50;;;22.10;;
71080;SDS011;58740;50.672;18.690;2022-11-15T03:58:37;43.90;;;20.30;;
71080;SDS011;58740;50.672;18.690;2022-11-15T04:01:04;35.00;;;18.30;;
71080;SDS011;58740;50.672;18.690;2022-11-15T04:03:32;40.50;;;20.20;;
71080;SDS011;58740;50.672;18.690;2022-11-15T04:06:01;37.10;;;20.10;;
71080;SDS011;58740;50.672;18.690;2022-11-15T04:08:28;36.10;;;19.30;;
71080;SDS011;58740;50.672;18.690;2022-11-15T04:10:56;35.30;;;20.00;;
71080;SDS011;58740;50.672;18.690;2022-11-15T04:13:25;39.70;;;18.40;;
71080;SDS011;58740;50.672;18.690;2022-11-15T04:15:53;35.10;;;17.30;;
71080;SDS011;58740;50.672;18.690;2022-11-15T04:18:20;39.40;;;19.00;;
71080;SDS011;58740;50.672;18.690;2022-11-15T04:20:48;34.60;;;17.10;;
71080;SDS011;58740;50.672;18.690;2022-11-15T04:23:35;36.80;;;17.80;;
71080;SDS011;58740;50.672;18.690;2022-11-15T04:26:22;39.90;;;18.60;;
71080;SDS011;58740;50.672;18.690;2022-11-15T04:28:50;34.10;;;17.80;;
71080;SDS011;58740;50.672;18.690;2022-11-15T04:31:37;39.60;;;18.60;;
71080;SDS011;58740;50.672;18.690;2022-11-15T04:34:05;34.90;;;18.40;;
71080;SDS011;58740;50.672;18.690;2022-11-15T04:36:33;37.10;;;19.90;;
71080;SDS011;58740;50.672;18.690;2022-11-15T04:39:20;38.20;;;17.90;;
71080;SDS011;58740;50.672;18.690;2022-11-15T04:41:47;30.20;;;16.30;;
71080;SDS011;58740;50.672;18.690;2022-11-15T04:44:15;33.10;;;18.50;;
71080;SDS011;58740;50.672;18.690;2022-11-15T04:46:43;37.30;;;18.10;;
71080;SDS011;58740;50.672;18.690;2022-11-15T04:49:11;32.90;;;18.20;;
71080;SDS011;58740;50.672;18.690;2022-11-15T04:51:39;31.50;;;18.40;;
71080;SDS011;58740;50.672;18.690;2022-11-15T04:54:07;35.50;;;18.00;;
71080;SDS011;58740;50.672;18.690;2022-11-15T04:56:34;30.80;;;17.80;;
71080;SDS011;58740;50.672;18.690;2022-11-15T04:59:02;37.50;;;18.90;;
71080;SDS011;58740;50.672;18.690;2022-11-15T05:01:30;33.80;;;17.30;;
71080;SDS011;58740;50.672;18.690;2022-11-15T05:03:58;35.00;;;17.10;;
71080;SDS011;58740;50.672;18.690;2022-11-15T05:06:46;32.50;;;17.90;;
71080;SDS011;58740;50.672;18.690;2022-11-15T05:09:19;34.30;;;19.40;;
71080;SDS011;58740;50.672;18.690;2022-11-15T05:11:48;37.80;;;18.40;;
71080;SDS011;58740;50.672;18.690;2022-11-15T05:14:16;33.00;;;18.00;;
71080;SDS011;58740;50.672;18.690;2022-11-15T05:16:44;37.00;;;18.00;;
71080;SDS011;58740;50.672;18.690;2022-11-15T05:19:11;36.20;;;19.50;;
71080;SDS011;58740;50.672;18.690;2022-11-15T05:21:39;34.50;;;18.70;;
71080;SDS011;58740;50.672;18.690;2022-11-15T05:24:10;39.60;;;18.20;;
71080;SDS011;58740;50.672;18.690;2022-11-15T05:26:38;28.20;;;17.00;;
71080;SDS011;58740;50.672;18.690;2022-11-15T05:29:08;33.80;;;18.20;;
71080;SDS011;58740;50.672;18.690;2022-11-15T05:31:39;44.70;;;22.50;;
71080;SDS011;58740;50.672;18.690;2022-11-15T05:34:09;40.30;;;21.30;;
71080;SDS011;58740;50.672;18.690;2022-11-15T05:36:44;37.70;;;20.50;;
71080;SDS011;58740;50.672;18.690;2022-11-15T05:39:15;42.20;;;22.40;;
71080;SDS011;58740;50.672;18.690;2022-11-15T05:41:50;44.70;;;22.90;;
71080;SDS011;58740;50.672;18.690;2022-11-15T05:44:27;52.10;;;24.40;;
71080;SDS011;58740;50.672;18.690;2022-11-15T05:46:56;37.30;;;19.40;;
71080;SDS011;58740;50.672;18.690;2022-11-15T05:49:27;42.50;;;22.20;;
71080;SDS011;58740;50.672;18.690;2022-11-15T05:51:59;40.70;;;22.60;;
71080;SDS011;58740;50.672;18.690;2022-11-15T05:54:26;49.70;;;23.20;;
71080;SDS011;58740;50.672;18.690;2022-11-15T05:56:54;52.60;;;25.90;;
71080;SDS011;58740;50.672;18.690;2022-11-15T05:59:23;56.30;;;26.50;;
71080;SDS011;58740;50.672;18.690;2022-11-15T06:01:51;51.10;;;25.00;;
71080;SDS011;58740;50.672;18.690;2022-11-15T06:04:19;48.50;;;24.00;;
71080;SDS011;58740;50.672;18.690;2022-11-15T06:06:47;43.20;;;24.90;;
71080;SDS011;58740;50.672;18.690;2022-11-15T06:09:14;41.60;;;21.50;;
71080;SDS011;58740;50.672;18.690;2022-11-15T06:11:42;44.50;;;24.30;;
71080;SDS011;58740;50.672;18.690;2022-11-15T06:14:10;47.00;;;22.30;;
71080;SDS011;58740;50.672;18.690;2022-11-15T06:16:37;44.40;;;23.60;;
71080;SDS011;58740;50.672;18.690;2022-11-15T06:19:06;45.60;;;24.80;;
71080;SDS011;58740;50.672;18.690;2022-11-15T06:21:35;43.60;;;24.00;;
71080;SDS011;58740;50.672;18.690;2022-11-15T06:24:03;44.00;;;22.40;;
71080;SDS011;58740;50.672;18.690;2022-11-15T06:26:32;49.30;;;25.70;;
71080;SDS011;58740;50.672;18.690;2022-11-15T06:28:59;53.60;;;28.30;;
71080;SDS011;58740;50.672;18.690;2022-11-15T06:31:27;48.90;;;27.50;;
71080;SDS011;58740;50.672;18.690;2022-11-15T06:33:55;45.80;;;26.40;;
71080;SDS011;58740;50.672;18.690;2022-11-15T06:36:23;47.20;;;27.20;;
71080;SDS011;58740;50.672;18.690;2022-11-15T06:38:51;50.40;;;25.40;;
71080;SDS011;58740;50.672;18.690;2022-11-15T06:41:18;48.60;;;26.80;;
71080;SDS011;58740;50.672;18.690;2022-11-15T06:43:48;38.60;;;22.30;;
71080;SDS011;58740;50.672;18.690;2022-11-15T06:46:16;42.00;;;23.90;;
71080;SDS011;58740;50.672;18.690;2022-11-15T06:48:43;51.20;;;26.90;;
71080;SDS011;58740;50.672;18.690;2022-11-15T06:51:11;48.70;;;26.20;;
71080;SDS011;58740;50.672;18.690;2022-11-15T06:53:39;43.10;;;23.90;;
71080;SDS011;58740;50.672;18.690;2022-11-15T06:56:07;44.60;;;25.70;;
71080;SDS011;58740;50.672;18.690;2022-11-15T06:58:35;46.60;;;26.40;;
71080;SDS011;58740;50.672;18.690;2022-11-15T07:01:08;44.50;;;25.30;;
71080;SDS011;58740;50.672;18.690;2022-11-15T07:03:40;44.10;;;23.50;;
71080;SDS011;58740;50.672;18.690;2022-11-15T07:06:09;44.50;;;24.20;;
71080;SDS011;58740;50.672;18.690;2022-11-15T07:08:37;42.90;;;23.50;;
71080;SDS011;58740;50.672;18.690;2022-11-15T07:11:07;49.20;;;26.40;;
71080;SDS011;58740;50.672;18.690;2022-11-15T07:13:36;46.60;;;24.10;;
71080;SDS011;58740;50.672;18.690;2022-11-15T07:16:06;44.30;;;22.80;;
71080;SDS011;58740;50.672;18.690;2022-11-15T07:18:38;39.70;;;22.20;;
71080;SDS011;58740;50.672;18.690;2022-11-15T07:21:09;40.70;;;21.50;;
71080;SDS011;58740;50.672;18.690;2022-11-15T07:23:38;44.10;;;23.40;;
71080;SDS011;58740;50.672;18.690;2022-11-15T07:26:07;42.50;;;23.70;;
71080;SDS011;58740;50.672;18.690;2022-11-15T07:28:36;42.30;;;23.70;;
71080;SDS011;58740;50.672;18.690;2022-11-15T07:31:08;43.90;;;22.40;;
71080;SDS011;58740;50.672;18.690;2022-11-15T07:33:36;38.80;;;21.00;;
71080;SDS011;58740;50.672;18.690;2022-11-15T07:36:06;40.10;;;21.50;;
71080;SDS011;58740;50.672;18.690;2022-11-15T07:38:34;41.40;;;22.00;;
71080;SDS011;58740;50.672;18.690;2022-11-15T07:41:09;43.00;;;22.70;;
71080;SDS011;58740;50.672;18.690;2022-11-15T07:43:37;38.40;;;21.90;;
71080;SDS011;58740;50.672;18.690;2022-11-15T07:46:06;36.80;;;21.50;;
71080;SDS011;58740;50.672;18.690;2022-11-15T07:48:38;54.50;;;28.70;;
71080;SDS011;58740;50.672;18.690;2022-11-15T07:51:13;38.90;;;21.10;;
71080;SDS011;58740;50.672;18.690;2022-11-15T07:53:43;34.50;;;18.60;;
71080;SDS011;58740;50.672;18.690;2022-11-15T07:56:12;35.70;;;19.70;;
71080;SDS011;58740;50.672;18.690;2022-11-15T07:58:40;31.20;;;16.00;;
71080;SDS011;58740;50.672;18.690;2022-11-15T08:01:09;23.60;;;12.00;;
71080;SDS011;58740;50.672;18.690;2022-11-15T08:03:38;33.50;;;17.20;;
71080;SDS011;58740;50.672;18.690;2022-11-15T08:06:05;21.60;;;13.60;;
71080;SDS011;58740;50.672;18.690;2022-11-15T08:08:33;38.40;;;19.10;;
71080;SDS011;58740;50.672;18.690;2022-11-15T08:11:01;42.60;;;21.70;;
71080;SDS011;58740;50.672;18.690;2022-11-15T08:13:29;39.10;;;21.30;;
71080;SDS011;58740;50.672;18.690;2022-11-15T08:16:00;43.30;;;20.90;;
71080;SDS011;58740;50.672;18.690;2022-11-15T08:18:29;38.20;;;19.60;;
71080;SDS011;58740;50.672;18.690;2022-11-15T08:21:00;27.50;;;14.50;;
71080;SDS011;58740;50.672;18.690;2022-11-15T08:23:29;36.60;;;20.30;;
71080;SDS011;58740;50.672;18.690;2022-11-15T08:26:02;33.40;;;17.50;;
71080;SDS011;58740;50.672;18.690;2022-11-15T08:28:31;37.90;;;19.00;;
71080;SDS011;58740;50.672;18.690;2022-11-15T08:31:00;35.50;;;17.60;;
71080;SDS011;58740;50.672;18.690;2022-11-15T08:33:28;36.10;;;18.70;;
71080;SDS011;58740;50.672;18.690;2022-11-15T08:35:58;36.10;;;19.00;;
71080;SDS011;58740;50.672;18.690;2022-11-15T08:38:27;36.50;;;18.80;;
71080;SDS011;58740;50.672;18.690;2022-11-15T08:41:03;30.20;;;16.20;;
71080;SDS011;58740;50.672;18.690;2022-11-15T08:43:33;28.20;;;15.40;;
71080;SDS011;58740;50.672;18.690;2022-11-15T08:46:01;21.30;;;10.60;;
71080;SDS011;58740;50.672;18.690;2022-11-15T08:48:29;24.00;;;12.80;;
71080;SDS011;58740;50.672;18.690;2022-11-15T08:50:57;35.80;;;17.10;;
71080;SDS011;58740;50.672;18.690;2022-11-15T08:53:25;32.50;;;17.20;;
71080;SDS011;58740;50.672;18.690;2022-11-15T08:55:53;26.40;;;13.80;;
71080;SDS011;58740;50.672;18.690;2022-11-15T08:58:21;29.50;;;16.00;;
71080;SDS011;58740;50.672;18.690;2022-11-15T09:00:49;29.10;;;15.20;;
71080;SDS011;58740;50.672;18.690;2022-11-15T09:03:16;31.80;;;16.00;;
71080;SDS011;58740;50.672;18.690;2022-11-15T09:05:44;28.40;;;14.90;;
71080;SDS011;58740;50.672;18.690;2022-11-15T09:08:12;25.30;;;13.20;;
71080;SDS011;58740;50.672;18.690;2022-11-15T09:11:08;25.30;;;14.30;;
71080;SDS011;58740;50.672;18.690;2022-11-15T09:13:37;28.70;;;15.00;;
71080;SDS011;58740;50.672;18.690;2022-11-15T09:16:05;28.80;;;15.60;;
71080;SDS011;58740;50.672;18.690;2022-11-15T09:18:34;27.90;;;15.10;;
71080;SDS011;58740;50.672;18.690;2022-11-15T09:21:02;25.20;;;13.70;;
71080;SDS011;58740;50.672;18.690;2022-11-15T09:23:31;27.60;;;14.80;;
71080;SDS011;58740;50.672;18.690;2022-11-15T09:26:00;31.60;;;17.00;;
71080;SDS011;58740;50.672;18.690;2022-11-15T09:28:31;31.60;;;18.00;;
71080;SDS011;58740;50.672;18.690;2022-11-15T09:31:17;32.70;;;17.20;;
71080;SDS011;58740;50.672;18.690;2022-11-15T09:33:48;30.60;;;17.50;;
71080;SDS011;58740;50.672;18.690;2022-11-15T09:36:16;32.90;;;18.30;;
71080;SDS011;58740;50.672;18.690;2022-11-15T09:38:44;30.20;;;16.20;;
71080;SDS011;58740;50.672;18.690;2022-11-15T09:43:50;26.10;;;14.30;;
71080;SDS011;58740;50.672;18.690;2022-11-15T09:49:58;21.50;;;11.80;;
71080;SDS011;58740;50.672;18.690;2022-11-15T09:52:28;33.70;;;16.70;;
71080;SDS011;58740;50.672;18.690;2022-11-15T09:54:56;29.30;;;14.30;;
71080;SDS011;58740;50.672;18.690;2022-11-15T10:00:39;28.00;;;14.60;;
71080;SDS011;58740;50.672;18.690;2022-11-15T10:03:38;29.30;;;17.00;;
71080;SDS011;58740;50.672;18.690;2022-11-15T10:06:21;31.70;;;15.90;;
71080;SDS011;58740;50.672;18.690;2022-11-15T10:09:07;31.80;;;16.30;;
71080;SDS011;58740;50.672;18.690;2022-11-15T10:11:49;31.20;;;16.80;;
71080;SDS011;58740;50.672;18.690;2022-11-15T10:14:20;28.00;;;16.10;;
71080;SDS011;58740;50.672;18.690;2022-11-15T10:20:12;30.90;;;16.60;;
71080;SDS011;58740;50.672;18.690;2022-11-15T10:22:51;28.20;;;14.80;;
71080;SDS011;58740;50.672;18.690;2022-11-15T10:25:29;29.10;;;15.20;;
71080;SDS011;58740;50.672;18.690;2022-11-15T10:28:03;29.50;;;14.80;;
71080;SDS011;58740;50.672;18.690;2022-11-15T10:30:38;28.10;;;15.60;;
71080;SDS011;58740;50.672;18.690;2022-11-15T10:33:26;27.90;;;17.00;;
71080;SDS011;58740;50.672;18.690;2022-11-15T10:36:16;29.60;;;16.80;;
71080;SDS011;58740;50.672;18.690;2022-11-15T10:47:21;29.00;;;16.20;;
71080;SDS011;58740;50.672;18.690;2022-11-15T10:49:56;27.50;;;15.50;;
71080;SDS011;58740;50.672;18.690;2022-11-15T10:52:35;33.30;;;16.60;;
71080;SDS011;58740;50.672;18.690;2022-11-15T10:55:21;25.80;;;15.60;;
71080;SDS011;58740;50.672;18.690;2022-11-15T10:58:02;26.30;;;16.00;;
71080;SDS011;58740;50.672;18.690;2022-11-15T11:00:37;30.10;;;16.10;;
71080;SDS011;58740;50.672;18.690;2022-11-15T11:03:34;24.30;;;15.00;;
71080;SDS011;58740;50.672;18.690;2022-11-15T11:06:11;27.80;;;13.60;;
71080;SDS011;58740;50.672;18.690;2022-11-15T11:08:39;28.70;;;17.50;;
71080;SDS011;58740;50.672;18.690;2022-11-15T11:11:07;31.60;;;16.50;;
71080;SDS011;58740;50.672;18.690;2022-11-15T11:13:38;30.10;;;16.70;;
71080;SDS011;58740;50.672;18.690;2022-11-15T11:18:48;31.50;;;16.00;;
71080;SDS011;58740;50.672;18.690;2022-11-15T11:21:46;27.50;;;16.20;;
71080;SDS011;58740;50.672;18.690;2022-11-15T11:24:44;26.20;;;15.60;;
71080;SDS011;58740;50.672;18.690;2022-11-15T11:30:44;33.30;;;18.50;;
71080;SDS011;58740;50.672;18.690;2022-11-15T11:33:22;32.80;;;17.70;;
71080;SDS011;58740;50.672;18.690;2022-11-15T11:40:13;37.70;;;17.70;;
71080;SDS011;58740;50.672;18.690;2022-11-15T11:45:18;32.30;;;17.20;;
71080;SDS011;58740;50.672;18.690;2022-11-15T11:50:47;30.70;;;16.20;;
71080;SDS011;58740;50.672;18.690;2022-11-15T11:53:37;33.70;;;18.40;;
71080;SDS011;58740;50.672;18.690;2022-11-15T11:56:22;35.30;;;18.00;;
71080;SDS011;58740;50.672;18.690;2022-11-15T11:58:57;34.20;;;18.80;;
71080;SDS011;58740;50.672;18.690;2022-11-15T12:01:37;29.80;;;15.70;;
71080;SDS011;58740;50.672;18.690;2022-11-15T12:04:18;37.70;;;19.90;;
71080;SDS011;58740;50.672;18.690;2022-11-15T12:06:52;37.30;;;18.20;;
71080;SDS011;58740;50.672;18.690;2022-11-15T12:09:39;35.10;;;18.40;;
71080;SDS011;58740;50.672;18.690;2022-11-15T12:12:54;35.50;;;18.80;;
71080;SDS011;58740;50.672;18.690;2022-11-15T12:16:06;36.00;;;18.10;;
71080;SDS011;58740;50.672;18.690;2022-11-15T12:18:44;32.50;;;17.50;;
71080;SDS011;58740;50.672;18.690;2022-11-15T12:24:20;34.60;;;18.50;;
71080;SDS011;58740;50.672;18.690;2022-11-15T12:29:56;40.10;;;20.90;;
71080;SDS011;58740;50.672;18.690;2022-11-15T12:32:30;36.80;;;17.80;;
71080;SDS011;58740;50.672;18.690;2022-11-15T12:35:02;32.50;;;17.70;;
71080;SDS011;58740;50.672;18.690;2022-11-15T12:45:45;37.30;;;20.10;;
71080;SDS011;58740;50.672;18.690;2022-11-15T13:06:56;37.80;;;19.30;;
71080;SDS011;58740;50.672;18.690;2022-11-15T13:14:56;34.80;;;19.20;;
71080;SDS011;58740;50.672;18.690;2022-11-15T13:17:30;34.10;;;18.00;;
71080;SDS011;58740;50.672;18.690;2022-11-15T13:23:07;31.70;;;17.60;;
71080;SDS011;58740;50.672;18.690;2022-11-15T13:26:06;32.90;;;17.60;;
71080;SDS011;58740;50.672;18.690;2022-11-15T13:28:46;39.00;;;19.80;;
71080;SDS011;58740;50.672;18.690;2022-11-15T13:31:37;39.30;;;18.80;;
71080;SDS011;58740;50.672;18.690;2022-11-15T13:34:30;37.10;;;18.50;;
71080;SDS011;58740;50.672;18.690;2022-11-15T13:39:49;34.10;;;19.10;;
71080;SDS011;58740;50.672;18.690;2022-11-15T13:42:19;38.50;;;20.20;;
71080;SDS011;58740;50.672;18.690;2022-11-15T13:44:59;37.30;;;18.70;;
71080;SDS011;58740;50.672;18.690;2022-11-15T13:47:30;33.90;;;19.00;;
71080;SDS011;58740;50.672;18.690;2022-11-15T13:49:59;40.70;;;21.90;;
71080;SDS011;58740;50.672;18.690;2022-11-15T13:52:32;39.30;;;19.40;;
71080;SDS011;58740;50.672;18.690;2022-11-15T13:55:10;40.10;;;20.10;;
71080;SDS011;58740;50.672;18.690;2022-11-15T13:57:47;37.50;;;17.90;;
71080;SDS011;58740;50.672;18.690;2022-11-15T14:03:24;44.20;;;23.10;;
71080;SDS011;58740;50.672;18.690;2022-11-15T14:06:13;45.10;;;21.90;;
71080;SDS011;58740;50.672;18.690;2022-11-15T14:11:37;43.40;;;21.70;;
71080;SDS011;58740;50.672;18.690;2022-11-15T14:14:20;43.40;;;22.80;;
71080;SDS011;58740;50.672;18.690;2022-11-15T14:17:00;41.00;;;22.00;;
71080;SDS011;58740;50.672;18.690;2022-11-15T14:22:09;39.40;;;20.70;;
71080;SDS011;58740;50.672;18.690;2022-11-15T14:24:37;42.20;;;22.40;;
71080;SDS011;58740;50.672;18.690;2022-11-15T14:29:48;46.70;;;23.70;;
71080;SDS011;58740;50.672;18.690;2022-11-15T14:32:25;47.50;;;22.10;;
71080;SDS011;58740;50.672;18.690;2022-11-15T14:34:57;42.40;;;21.90;;
71080;SDS011;58740;50.672;18.690;2022-11-15T14:37:29;37.90;;;20.10;;
71080;SDS011;58740;50.672;18.690;2022-11-15T14:40:04;41.50;;;21.50;;
71080;SDS011;58740;50.672;18.690;2022-11-15T14:42:33;42.30;;;20.60;;
71080;SDS011;58740;50.672;18.690;2022-11-15T14:45:01;40.20;;;21.00;;
71080;SDS011;58740;50.672;18.690;2022-11-15T14:47:28;46.30;;;23.00;;
71080;SDS011;58740;50.672;18.690;2022-11-15T14:49:56;43.90;;;21.20;;
71080;SDS011;58740;50.672;18.690;2022-11-15T14:52:27;43.30;;;21.00;;
71080;SDS011;58740;50.672;18.690;2022-11-15T14:55:00;44.20;;;23.00;;
71080;SDS011;58740;50.672;18.690;2022-11-15T14:57:30;42.00;;;22.80;;
71080;SDS011;58740;50.672;18.690;2022-11-15T14:59:58;45.30;;;23.10;;
71080;SDS011;58740;50.672;18.690;2022-11-15T15:02:26;47.40;;;23.90;;
71080;SDS011;58740;50.672;18.690;2022-11-15T15:04:54;53.60;;;24.40;;
71080;SDS011;58740;50.672;18.690;2022-11-15T15:07:23;47.50;;;24.60;;
71080;SDS011;58740;50.672;18.690;2022-11-15T15:09:51;44.50;;;23.00;;
71080;SDS011;58740;50.672;18.690;2022-11-15T15:12:20;49.60;;;24.40;;
71080;SDS011;58740;50.672;18.690;2022-11-15T15:14:50;48.90;;;24.30;;
71080;SDS011;58740;50.672;18.690;2022-11-15T15:17:17;48.40;;;23.70;;
71080;SDS011;58740;50.672;18.690;2022-11-15T15:19:45;46.00;;;24.40;;
71080;SDS011;58740;50.672;18.690;2022-11-15T15:22:15;47.30;;;24.10;;
71080;SDS011;58740;50.672;18.690;2022-11-15T15:24:45;45.10;;;24.30;;
71080;SDS011;58740;50.672;18.690;2022-11-15T15:27:14;46.90;;;23.80;;
71080;SDS011;58740;50.672;18.690;2022-11-15T15:29:41;58.80;;;27.20;;
71080;SDS011;58740;50.672;18.690;2022-11-15T15:32:10;64.40;;;30.80;;
71080;SDS011;58740;50.672;18.690;2022-11-15T15:34:38;103.40;;;48.00;;
71080;SDS011;58740;50.672;18.690;2022-11-15T15:37:25;98.90;;;47.20;;
71080;SDS011;58740;50.672;18.690;2022-11-15T15:39:55;90.20;;;43.10;;
71080;SDS011;58740;50.672;18.690;2022-11-15T15:42:24;73.50;;;36.90;;
71080;SDS011;58740;50.672;18.690;2022-11-15T15:44:52;70.80;;;37.00;;
71080;SDS011;58740;50.672;18.690;2022-11-15T15:47:21;76.10;;;37.20;;
71080;SDS011;58740;50.672;18.690;2022-11-15T15:49:50;78.70;;;41.70;;
71080;SDS011;58740;50.672;18.690;2022-11-15T15:52:18;83.50;;;42.60;;
71080;SDS011;58740;50.672;18.690;2022-11-15T15:54:46;88.10;;;46.20;;
71080;SDS011;58740;50.672;18.690;2022-11-15T15:57:14;96.10;;;48.70;;
71080;SDS011;58740;50.672;18.690;2022-11-15T15:59:42;99.20;;;50.50;;
71080;SDS011;58740;50.672;18.690;2022-11-15T16:02:13;118.00;;;57.10;;
71080;SDS011;58740;50.672;18.690;2022-11-15T16:04:41;115.40;;;58.40;;
71080;SDS011;58740;50.672;18.690;2022-11-15T16:07:17;136.60;;;65.60;;
71080;SDS011;58740;50.672;18.690;2022-11-15T16:09:49;135.70;;;65.50;;
71080;SDS011;58740;50.672;18.690;2022-11-15T16:12:32;129.90;;;68.00;;
71080;SDS011;58740;50.672;18.690;2022-11-15T16:15:02;126.40;;;63.90;;
71080;SDS011;58740;50.672;18.690;2022-11-15T16:17:33;136.70;;;67.30;;
71080;SDS011;58740;50.672;18.690;2022-11-15T16:20:06;135.80;;;65.10;;
71080;SDS011;58740;50.672;18.690;2022-11-15T16:22:34;121.50;;;60.40;;
71080;SDS011;58740;50.672;18.690;2022-11-15T16:25:02;122.50;;;58.40;;
71080;SDS011;58740;50.672;18.690;2022-11-15T16:27:30;117.20;;;57.90;;
71080;SDS011;58740;50.672;18.690;2022-11-15T16:29:57;109.50;;;55.30;;
71080;SDS011;58740;50.672;18.690;2022-11-15T16:32:25;112.60;;;56.90;;
71080;SDS011;58740;50.672;18.690;2022-11-15T16:34:53;126.10;;;60.00;;
71080;SDS011;58740;50.672;18.690;2022-11-15T16:37:23;122.60;;;60.50;;
71080;SDS011;58740;50.672;18.690;2022-11-15T16:39:51;131.20;;;64.40;;
71080;SDS011;58740;50.672;18.690;2022-11-15T16:42:26;148.40;;;73.80;;